Time;durP1;ratioP1;P1;durP2;ratioP2;P2;SDS_P1;SDS_P2;PMS_P1;PMS_P2;Temp;Humidity;BMP_temperature;BMP_pressure;BME280_temperature;BME280_humidity;BME280_pressure;Samples;Min_cycle;Max_cycle;Signal;HPM_P1;HPM_P2
2022/10/02 00:00:57;;;;;;;;;1.00;1.00;;;;;13.21;77.31;99704.41;5015992;28;8831;-60
2022/10/02 00:03:24;;;;;;;;;3.00;3.00;;;;;13.20;77.72;99708.06;5016438;28;8863;-61
2022/10/02 00:05:52;;;;;;;;;4.50;4.50;;;;;13.23;77.19;99713.13;5016095;28;8904;-60
2022/10/02 00:08:20;;;;;;;;;1.00;1.00;;;;;13.26;77.58;99718.16;5016863;28;8948;-60
2022/10/02 00:10:52;;;;;;;;;0.50;0.50;;;;;13.28;77.50;99711.69;5017273;28;8932;-60
2022/10/02 00:13:20;;;;;;;;;4.00;3.00;;;;;13.27;77.37;99710.00;5017670;28;8834;-61
2022/10/02 00:15:47;;;;;;;;;4.50;4.50;;;;;13.28;77.92;99716.22;5017790;28;8896;-61
2022/10/02 00:18:15;;;;;;;;;3.50;3.50;;;;;13.29;78.18;99712.53;5036823;28;8828;-61
2022/10/02 00:20:42;;;;;;;;;3.00;3.00;;;;;13.31;77.28;99718.59;5037459;28;8836;-60
2022/10/02 00:23:10;;;;;;;;;3.50;3.50;;;;;13.33;77.94;99712.09;5037103;28;8843;-61
2022/10/02 00:25:38;;;;;;;;;4.50;3.50;;;;;13.34;77.99;99720.97;5037169;28;8827;-60
2022/10/02 00:28:05;;;;;;;;;5.50;4.75;;;;;13.35;77.65;99720.00;5036713;28;8856;-60
2022/10/02 00:30:33;;;;;;;;;4.75;4.75;;;;;13.35;77.50;99720.00;5037447;28;8851;-60
2022/10/02 00:33:01;;;;;;;;;3.50;3.00;;;;;13.36;77.99;99714.47;5037085;28;8937;-60
2022/10/02 00:35:29;;;;;;;;;3.00;3.00;;;;;13.37;77.93;99716.16;5036806;28;8840;-60
2022/10/02 00:37:57;;;;;;;;;3.50;2.00;;;;;13.39;78.13;99724.03;5036839;28;8831;-60
2022/10/02 00:40:24;;;;;;;;;2.00;1.00;;;;;13.38;78.54;99725.03;5036848;28;8824;-61
2022/10/02 00:42:52;;;;;;;;;4.25;4.25;;;;;13.37;77.86;99724.19;5036800;28;8909;-61
2022/10/02 00:45:19;;;;;;;;;1.00;1.00;;;;;13.40;78.19;99726.59;5036689;28;8905;-60
2022/10/02 00:47:48;;;;;;;;;4.50;3.00;;;;;13.42;78.53;99731.78;5037169;28;8835;-61
2022/10/02 00:50:16;;;;;;;;;5.25;3.75;;;;;13.44;78.34;99732.50;5036973;28;8851;-61
2022/10/02 00:52:44;;;;;;;;;3.00;3.00;;;;;13.43;78.52;99726.28;5036888;28;8820;-61
2022/10/02 00:55:12;;;;;;;;;4.00;4.00;;;;;13.43;78.66;99728.13;5036467;28;8905;-60
2022/10/02 00:57:40;;;;;;;;;4.00;4.00;;;;;13.43;77.94;99728.13;5037000;28;8847;-60
2022/10/02 01:00:08;;;;;;;;;2.25;1.50;;;;;13.43;78.15;99731.63;5035657;28;8847;-60
2022/10/02 01:02:35;;;;;;;;;4.00;3.50;;;;;13.44;78.66;99725.28;5034873;28;8906;-60
2022/10/02 01:05:03;;;;;;;;;4.00;4.00;;;;;13.49;78.53;99724.84;5035645;28;8859;-60
2022/10/02 01:07:31;;;;;;;;;4.00;2.00;;;;;13.50;78.33;99724.72;5035972;28;8851;-60
2022/10/02 01:09:58;;;;;;;;;4.50;4.00;;;;;13.54;78.42;99733.28;5036193;28;9677;-60
2022/10/02 01:12:26;;;;;;;;;5.00;3.75;;;;;13.56;78.59;99725.97;5036086;28;8862;-60
2022/10/02 01:14:54;;;;;;;;;3.50;3.50;;;;;13.61;78.77;99745.09;5036169;28;8827;-60
2022/10/02 01:17:22;;;;;;;;;4.00;4.00;;;;;13.63;78.21;99741.28;5036443;28;8832;-60
2022/10/02 01:19:50;;;;;;;;;10.00;7.00;;;;;13.65;78.36;99743.81;5036385;28;8824;-60
2022/10/02 01:22:17;;;;;;;;;7.50;6.50;;;;;13.69;78.79;99740.72;5035262;28;8970;-60
2022/10/02 01:24:46;;;;;;;;;5.50;4.00;;;;;13.74;78.55;99734.94;5036390;28;8854;-60
2022/10/02 01:27:13;;;;;;;;;4.00;3.75;;;;;13.81;78.24;99738.69;5036398;28;8840;-62
2022/10/02 01:29:41;;;;;;;;;6.75;5.50;;;;;13.85;78.17;99737.41;5035638;28;8925;-60
2022/10/02 01:32:08;;;;;;;;;4.00;3.25;;;;;13.89;78.34;99738.81;5035944;28;8860;-61
2022/10/02 01:34:36;;;;;;;;;6.50;6.00;;;;;13.94;78.29;99731.16;5036006;28;8921;-60
2022/10/02 01:37:05;;;;;;;;;7.00;7.00;;;;;13.96;78.28;99738.06;5036070;28;8831;-60
2022/10/02 01:39:33;;;;;;;;;7.00;6.00;;;;;14.02;78.31;99741.97;5036221;28;8917;-60
2022/10/02 01:42:00;;;;;;;;;4.25;4.25;;;;;14.09;78.57;99735.88;5035939;28;8858;-61
2022/10/02 01:44:29;;;;;;;;;6.75;6.00;;;;;14.18;77.60;99739.53;5035884;28;8934;-61
2022/10/02 01:46:56;;;;;;;;;5.25;5.00;;;;;14.22;77.78;99740.91;5035671;28;9568;-60
2022/10/02 01:49:24;;;;;;;;;4.00;3.00;;;;;14.29;77.87;99747.34;5036073;28;8828;-60
2022/10/02 01:51:52;;;;;;;;;3.75;2.50;;;;;14.33;77.65;99744.22;5036177;28;9580;-60
2022/10/02 01:54:19;;;;;;;;;4.50;4.00;;;;;14.37;77.94;99737.59;5036124;28;8823;-60
2022/10/02 01:56:47;;;;;;;;;3.25;1.00;;;;;14.41;77.76;99741.63;5035732;28;8852;-60
2022/10/02 01:59:15;;;;;;;;;3.75;3.75;;;;;14.44;77.52;99735.97;5035732;28;8839;-60
2022/10/02 02:01:43;;;;;;;;;7.50;6.00;;;;;14.48;77.81;99737.34;5036105;28;8859;-60
2022/10/02 02:04:11;;;;;;;;;9.00;8.00;;;;;14.50;77.52;99731.84;5036407;28;8886;-60
2022/10/02 02:06:38;;;;;;;;;6.00;4.00;;;;;14.55;77.85;99737.56;5035168;28;8840;-60
2022/10/02 02:09:07;;;;;;;;;4.50;4.50;;;;;14.57;77.60;99731.06;5035569;28;8913;-60
2022/10/02 02:11:35;;;;;;;;;4.00;3.25;;;;;14.60;77.16;99729.94;5036021;28;8824;-60
2022/10/02 02:14:03;;;;;;;;;10.50;8.75;;;;;14.61;77.55;99731.63;5035840;28;8828;-61
2022/10/02 02:16:31;;;;;;;;;6.25;6.00;;;;;14.62;77.45;99727.94;5036032;28;8835;-60
2022/10/02 02:18:59;;;;;;;;;7.00;6.00;;;;;14.62;77.73;99727.94;5035902;28;8905;-62
2022/10/02 02:21:27;;;;;;;;;5.00;5.00;;;;;14.62;77.56;99722.56;5035481;28;8936;-60
2022/10/02 02:23:54;;;;;;;;;5.00;5.00;;;;;14.62;77.53;99727.94;5035777;28;9772;-60
2022/10/02 02:26:23;;;;;;;;;4.50;4.50;;;;;14.62;77.07;99717.22;5035657;28;8851;-60
2022/10/02 02:28:50;;;;;;;;;12.75;9.75;;;;;14.63;77.41;99719.75;5035076;28;8875;-59
2022/10/02 02:31:18;;;;;;;;;7.50;5.25;;;;;14.65;77.38;99733.00;5034747;28;8820;-60
2022/10/02 02:33:45;;;;;;;;;9.00;6.75;;;;;14.65;77.39;99728.47;5035889;28;8893;-61
2022/10/02 02:36:13;;;;;;;;;7.00;7.00;;;;;14.68;77.31;99728.19;5035899;28;8848;-62
2022/10/02 02:38:41;;;;;;;;;5.00;4.00;;;;;14.69;77.42;99729.00;5036131;28;8840;-60
2022/10/02 02:41:09;;;;;;;;;6.50;4.00;;;;;14.70;77.67;99736.06;5035367;28;8901;-60
2022/10/02 02:43:37;;;;;;;;;3.25;3.25;;;;;14.71;77.93;99733.22;5035730;28;8855;-61
2022/10/02 02:46:04;;;;;;;;;5.75;5.00;;;;;14.72;77.73;99734.09;5035449;28;8835;-61
2022/10/02 02:48:32;;;;;;;;;7.00;6.75;;;;;14.74;77.44;99742.81;5035287;28;8819;-61
2022/10/02 02:51:00;;;;;;;;;8.25;5.00;;;;;14.74;77.31;99735.63;5035099;28;8917;-61
2022/10/02 02:53:27;;;;;;;;;6.00;4.00;;;;;14.76;77.19;99738.13;5034387;28;8851;-60
2022/10/02 02:55:55;;;;;;;;;6.50;6.50;;;;;14.77;76.97;99745.16;5034186;28;8852;-62
2022/10/02 02:58:22;;;;;;;;;9.67;8.33;;;;;14.79;77.30;99743.19;5034298;28;8816;-61
2022/10/02 03:00:50;;;;;;;;;6.25;5.50;;;;;14.80;77.67;99743.03;5034569;28;8839;-60
2022/10/02 03:03:18;;;;;;;;;5.50;5.00;;;;;14.82;77.50;99737.50;5035451;28;8832;-62
2022/10/02 03:05:46;;;;;;;;;7.00;6.00;;;;;14.84;77.19;99740.88;5035689;28;8840;-61
2022/10/02 03:08:14;;;;;;;;;6.50;5.00;;;;;14.83;77.96;99737.38;5035178;28;8901;-61
2022/10/02 03:10:41;;;;;;;;;9.75;7.50;;;;;14.83;77.90;99747.25;5035180;28;8848;-60
2022/10/02 03:13:09;;;;;;;;;7.00;7.00;;;;;14.83;77.21;99736.50;5035602;28;9563;-61
2022/10/02 03:15:37;;;;;;;;;6.50;5.50;;;;;14.82;77.34;99743.75;5035913;28;8836;-61
2022/10/02 03:18:05;;;;;;;;;6.75;6.00;;;;;14.83;77.48;99732.00;5035493;28;8852;-62
2022/10/02 03:20:33;;;;;;;;;5.75;5.50;;;;;14.84;77.52;99736.38;5038962;28;8836;-61
2022/10/02 03:23:00;;;;;;;;;9.00;6.50;;;;;14.84;77.37;99733.69;5038709;28;8836;-61
2022/10/02 03:25:30;;;;;;;;;4.00;3.50;;;;;14.82;77.41;99724.97;5038801;28;8917;-61
2022/10/02 03:28:00;;;;;;;;;6.25;6.25;;;;;14.79;77.48;99725.25;5038494;28;8855;-61
2022/10/02 03:30:28;;;;;;;;;9.00;7.00;;;;;14.78;77.85;99726.25;5038119;28;8820;-61
2022/10/02 03:32:56;;;;;;;;;7.25;6.50;;;;;14.80;77.54;99732.31;5038795;28;8894;-61
2022/10/02 03:35:23;;;;;;;;;4.50;4.50;;;;;14.81;78.26;99728.63;5038974;28;8848;-62
2022/10/02 03:37:51;;;;;;;;;7.00;7.00;;;;;14.82;77.64;99737.50;5038674;28;8941;-60
2022/10/02 03:40:19;;;;;;;;;5.00;5.00;;;;;14.81;77.87;99741.19;5038654;28;8891;-63
2022/10/02 03:42:47;;;;;;;;;7.25;6.00;;;;;14.81;78.13;99733.97;5038582;28;8832;-60
2022/10/02 03:45:14;;;;;;;;;9.00;8.50;;;;;14.82;77.86;99737.50;5037973;28;8812;-60
2022/10/02 03:48:02;;;;;;;;;7.75;7.50;;;;;14.79;77.57;99729.78;5038468;28;8889;-61
2022/10/02 03:50:30;;;;;;;;;8.00;7.50;;;;;14.76;77.69;99735.44;5038089;28;8913;-61
2022/10/02 03:53:02;;;;;;;;;4.50;3.75;;;;;14.71;78.51;99738.59;5038275;28;8847;-62
2022/10/02 03:55:31;;;;;;;;;5.00;4.50;;;;;14.69;78.21;99729.88;5038091;28;8835;-61
2022/10/02 03:57:58;;;;;;;;;9.00;7.00;;;;;14.66;78.38;99727.47;5038209;28;9568;-60
2022/10/02 04:00:26;;;;;;;;;6.25;5.75;;;;;14.64;78.03;99721.44;5038262;28;8923;-61
2022/10/02 04:02:54;;;;;;;;;6.00;4.00;;;;;14.63;78.51;99725.09;5038218;28;8945;-62
2022/10/02 04:05:22;;;;;;;;;4.00;4.00;;;;;14.64;78.42;99731.31;5038013;28;9479;-62
2022/10/02 04:07:49;;;;;;;;;9.75;8.50;;;;;14.63;78.23;99726.97;5037984;28;8828;-61
2022/10/02 04:10:19;;;;;;;;;8.00;7.50;;;;;14.63;78.65;99730.47;5037029;28;8843;-61
2022/10/02 04:12:47;;;;;;;;;6.00;5.50;;;;;14.64;78.62;99725.97;5037253;28;8831;-61
2022/10/02 04:15:15;;;;;;;;;10.00;8.00;;;;;14.65;78.15;99727.66;5036194;28;8824;-61
2022/10/02 04:17:43;;;;;;;;;6.75;6.50;;;;;14.67;78.78;99736.38;5036857;28;8941;-61
2022/10/02 04:20:11;;;;;;;;;6.50;5.00;;;;;14.67;78.45;99725.66;5036144;28;8888;-61
2022/10/02 04:22:38;;;;;;;;;4.00;4.00;;;;;14.68;78.36;99728.19;5036981;28;9505;-61
2022/10/02 04:25:06;;;;;;;;;4.00;4.00;;;;;14.69;78.75;99731.69;5037168;28;8840;-61
2022/10/02 04:27:34;;;;;;;;;6.25;6.00;;;;;14.68;78.20;99728.19;5036767;28;8929;-60
2022/10/02 04:30:01;;;;;;;;;7.00;6.25;;;;;14.68;78.34;99740.72;5035184;28;8851;-61
2022/10/02 04:32:29;;;;;;;;;4.00;4.00;;;;;14.68;78.42;99730.00;5036123;28;8860;-62
2022/10/02 04:34:57;;;;;;;;;7.00;6.50;;;;;14.65;78.20;99733.00;5035157;28;8885;-61
2022/10/02 04:37:24;;;;;;;;;4.50;3.50;;;;;14.64;78.59;99731.31;5036498;28;8832;-61
2022/10/02 04:39:52;;;;;;;;;6.25;3.75;;;;;14.64;78.34;99731.31;5036574;28;8925;-60
2022/10/02 04:42:20;;;;;;;;;6.50;3.75;;;;;14.63;78.62;99718.94;5036297;28;9545;-62
2022/10/02 04:44:47;;;;;;;;;7.75;6.50;;;;;14.63;78.74;99727.78;5035853;28;8914;-62
2022/10/02 04:47:15;;;;;;;;;7.00;6.00;;;;;14.64;78.82;99736.69;5036449;28;8894;-61
2022/10/02 04:49:42;;;;;;;;;6.75;6.75;;;;;14.64;78.88;99736.69;5036426;28;8839;-61
2022/10/02 04:52:11;;;;;;;;;9.00;6.75;;;;;14.66;78.63;99734.69;5035949;28;8823;-60
2022/10/02 04:54:39;;;;;;;;;6.25;6.00;;;;;14.67;78.50;99734.53;5036337;28;9485;-62
2022/10/02 04:57:07;;;;;;;;;5.50;3.50;;;;;14.70;78.69;99744.09;5035862;28;8835;-61
2022/10/02 04:59:34;;;;;;;;;6.25;6.00;;;;;14.73;78.65;99741.13;5035982;28;8894;-61
2022/10/02 05:02:02;;;;;;;;;7.50;6.50;;;;;14.75;78.57;99747.16;5035915;28;8925;-61
2022/10/02 05:04:30;;;;;;;;;6.00;5.50;;;;;14.75;78.32;99749.84;5036439;28;8897;-62
2022/10/02 05:06:57;;;;;;;;;5.00;4.00;;;;;14.76;78.86;99741.66;5035751;28;8860;-61
2022/10/02 05:09:25;;;;;;;;;4.00;4.00;;;;;14.77;77.95;99742.50;5035991;28;8824;-61
2022/10/02 05:11:54;;;;;;;;;4.50;4.00;;;;;14.77;78.50;99726.41;5035999;28;8839;-62
2022/10/02 05:14:22;;;;;;;;;6.00;4.00;;;;;14.76;78.34;99738.97;5036210;28;8836;-62
2022/10/02 05:16:50;;;;;;;;;8.00;6.50;;;;;14.74;78.71;99740.13;5035842;28;8839;-61
2022/10/02 05:19:18;;;;;;;;;4.00;3.00;;;;;14.71;78.85;99730.53;5036021;28;8839;-62
2022/10/02 05:21:45;;;;;;;;;3.75;3.75;;;;;14.69;78.83;99729.00;5035669;28;8827;-63
2022/10/02 05:24:13;;;;;;;;;0.75;0.75;;;;;14.67;78.98;99731.00;5035904;28;8882;-63
2022/10/02 05:26:41;;;;;;;;;4.50;3.75;;;;;14.65;78.75;99728.47;5035253;28;8843;-63
2022/10/02 05:29:09;;;;;;;;;3.00;3.00;;;;;14.68;78.89;99744.28;5034954;28;8905;-63
2022/10/02 05:31:37;;;;;;;;;3.25;2.75;;;;;14.67;79.11;99747.94;5034746;28;8835;-63
2022/10/02 05:34:04;;;;;;;;;3.50;3.00;;;;;14.65;79.01;99749.91;5035224;28;8848;-63
2022/10/02 05:36:32;;;;;;;;;3.00;2.75;;;;;14.61;78.66;99753.91;5035433;28;8871;-63
2022/10/02 05:39:00;;;;;;;;;2.50;2.25;;;;;14.58;78.96;99756.06;5035382;28;8844;-61
2022/10/02 05:41:28;;;;;;;;;5.00;5.00;;;;;14.55;78.51;99762.56;5035531;28;8949;-63
2022/10/02 05:43:56;;;;;;;;;4.25;3.75;;;;;14.52;79.43;99775.41;5035762;28;8870;-61
2022/10/02 05:46:23;;;;;;;;;3.00;3.00;;;;;14.49;79.28;99767.69;5035389;28;8897;-60
2022/10/02 05:48:51;;;;;;;;;3.75;3.75;;;;;14.47;79.13;99777.69;5035371;28;8855;-60
2022/10/02 05:51:19;;;;;;;;;2.00;1.50;;;;;14.45;79.53;99777.84;5035403;28;8840;-60
2022/10/02 05:53:47;;;;;;;;;4.25;3.50;;;;;14.43;79.49;99776.31;5035316;28;8839;-60
2022/10/02 05:56:15;;;;;;;;;0.00;0.00;;;;;14.42;79.59;99764.75;5034214;28;8858;-60
2022/10/02 05:58:43;;;;;;;;;1.50;1.50;;;;;14.41;79.24;99767.59;5034105;28;8918;-60
2022/10/02 06:01:11;;;;;;;;;1.00;1.00;;;;;14.40;79.71;99765.88;5034504;28;9513;-60
2022/10/02 06:03:39;;;;;;;;;0.50;0.50;;;;;14.39;79.64;99761.53;5034492;28;8925;-60
2022/10/02 06:06:07;;;;;;;;;1.00;1.00;;;;;14.39;79.47;99764.19;5034853;28;8913;-61
2022/10/02 06:08:34;;;;;;;;;1.00;0.00;;;;;14.38;79.25;99767.88;5035076;28;8863;-60
2022/10/02 06:11:02;;;;;;;;;3.00;3.00;;;;;14.37;79.30;99772.41;5033937;28;8905;-61
2022/10/02 06:13:30;;;;;;;;;2.50;0.75;;;;;14.37;79.34;99769.72;5034840;28;9528;-62
2022/10/02 06:15:57;;;;;;;;;0.00;0.00;;;;;14.39;79.65;99788.31;5034694;28;8839;-61
2022/10/02 06:18:25;;;;;;;;;1.00;1.00;;;;;14.39;79.54;99782.94;5034765;28;8843;-60
2022/10/02 06:20:53;;;;;;;;;0.75;0.25;;;;;14.38;79.12;99778.59;5034499;28;8832;-61
2022/10/02 06:23:21;;;;;;;;;1.00;0.75;;;;;14.40;79.25;99792.66;5034297;28;8836;-60
2022/10/02 06:25:48;;;;;;;;;1.50;1.00;;;;;14.39;78.92;99794.53;5034148;28;8861;-61
2022/10/02 06:28:16;;;;;;;;;1.00;1.00;;;;;14.40;79.34;99800.72;5033412;28;8812;-60
2022/10/02 06:30:43;;;;;;;;;1.00;1.00;;;;;14.40;79.26;99809.59;5033440;28;8816;-60
2022/10/02 06:33:11;;;;;;;;;1.00;0.75;;;;;14.40;79.29;99809.59;5033925;28;8844;-61
2022/10/02 06:35:41;;;;;;;;;0.00;0.00;;;;;14.40;78.86;99808.75;5034366;28;8859;-60
2022/10/02 06:38:09;;;;;;;;;1.00;1.00;;;;;14.42;78.52;99809.47;5034381;28;8941;-61
2022/10/02 06:40:37;;;;;;;;;2.50;2.50;;;;;14.44;78.80;99810.16;5034268;28;9529;-61
2022/10/02 06:43:06;;;;;;;;;1.00;1.00;;;;;14.42;78.75;99818.31;5033979;28;8867;-61
2022/10/02 06:45:34;;;;;;;;;1.00;1.00;;;;;14.45;78.63;99825.22;5033936;28;8862;-60
2022/10/02 06:48:01;;;;;;;;;1.00;0.50;;;;;14.47;78.70;99820.56;5033461;28;8858;-61
2022/10/02 06:50:31;;;;;;;;;1.00;1.00;;;;;14.49;78.89;99829.31;5033601;28;8838;-60
2022/10/02 06:52:58;;;;;;;;;0.50;0.50;;;;;14.52;79.04;99837.03;5033681;28;8921;-60
2022/10/02 06:55:26;;;;;;;;;2.50;1.00;;;;;14.56;78.93;99841.13;5035266;28;9771;-61
2022/10/02 06:57:54;;;;;;;;;0.50;0.00;;;;;14.63;78.42;99842.22;5037131;28;8835;-60
2022/10/02 07:00:21;;;;;;;;;1.00;1.00;;;;;14.67;78.61;99839.09;5037541;28;8931;-61
2022/10/02 07:02:49;;;;;;;;;0.50;0.50;;;;;14.72;78.53;99826.06;5038842;28;9517;-61
2022/10/02 07:05:16;;;;;;;;;3.25;3.00;;;;;14.76;78.27;99830.13;5038919;28;8913;-60
2022/10/02 07:07:44;;;;;;;;;3.00;1.00;;;;;14.79;78.00;99824.44;5038906;28;8852;-61
2022/10/02 07:10:13;;;;;;;;;2.00;1.00;;;;;14.83;78.29;99833.03;5038690;28;8907;-61
2022/10/02 07:12:42;;;;;;;;;3.00;3.00;;;;;14.88;77.59;99838.78;5038545;28;8872;-60
2022/10/02 07:15:10;;;;;;;;;1.00;1.00;;;;;14.93;78.13;99847.22;5038724;28;8862;-60
2022/10/02 07:17:38;;;;;;;;;4.00;3.50;;;;;14.95;77.40;99840.69;5038391;28;8828;-61
2022/10/02 07:20:06;;;;;;;;;3.00;3.00;;;;;14.98;78.05;99836.88;5038561;28;8937;-61
2022/10/02 07:22:33;;;;;;;;;3.00;3.00;;;;;14.99;77.86;99839.41;5038754;28;8844;-61
2022/10/02 07:25:16;;;;;;;;;2.50;2.50;;;;;15.04;77.84;99836.28;5038576;28;8835;-60
2022/10/02 07:27:43;;;;;;;;;4.00;4.00;;;;;15.08;77.75;99838.50;5038610;28;9501;-60
2022/10/02 07:30:12;;;;;;;;;3.00;3.00;;;;;15.09;77.34;99847.41;5037989;28;8828;-60
2022/10/02 07:32:40;;;;;;;;;4.50;4.00;;;;;15.11;77.32;99840.88;5038634;28;8876;-61
2022/10/02 07:35:07;;;;;;;;;5.50;4.00;;;;;15.14;77.87;99853.13;5038299;28;8840;-61
2022/10/02 07:37:35;;;;;;;;;5.75;5.50;;;;;15.19;77.44;99845.47;5038451;28;8844;-61
2022/10/02 07:40:05;;;;;;;;;6.20;5.20;;;;;15.26;77.17;99843.88;5038323;28;8855;-61
2022/10/02 07:42:33;;;;;;;;;4.00;4.00;;;;;15.31;77.24;99846.94;5038211;28;8843;-60
2022/10/02 07:45:01;;;;;;;;;4.00;4.00;;;;;15.34;77.24;99860.06;5038427;28;8852;-61
2022/10/02 07:47:29;;;;;;;;;4.00;4.00;;;;;15.36;76.66;99858.94;5038609;28;8835;-61
2022/10/02 07:49:56;;;;;;;;;6.40;4.00;;;;;15.39;76.78;99860.47;5037548;28;9542;-60
2022/10/02 07:52:24;;;;;;;;;6.25;4.50;;;;;15.43;76.79;99864.50;5037015;28;8828;-61
2022/10/02 07:54:52;;;;;;;;;7.50;6.50;;;;;15.45;76.63;99874.09;5037136;28;9720;-61
2022/10/02 07:57:19;;;;;;;;;4.50;4.50;;;;;15.47;76.97;99866.72;5037092;28;8856;-61
2022/10/02 07:59:47;;;;;;;;;0.80;0.80;;;;;15.50;76.80;99873.63;5036327;28;8914;-60
2022/10/02 08:02:15;;;;;;;;;5.50;5.00;;;;;15.54;77.00;99873.16;5036935;28;9503;-60
2022/10/02 08:04:43;;;;;;;;;9.00;7.50;;;;;15.57;76.62;99877.38;5034781;28;8980;-60
2022/10/02 08:07:12;;;;;;;;;6.00;6.00;;;;;15.59;76.57;99876.22;5037226;28;8827;-60
2022/10/02 08:09:40;;;;;;;;;12.50;11.25;;;;;15.59;76.61;99876.22;5036858;28;8912;-61
2022/10/02 08:12:08;;;;;;;;;7.00;7.00;;;;;15.60;77.03;99874.38;5036701;28;8839;-60
2022/10/02 08:14:37;;;;;;;;;4.80;4.40;;;;;15.59;76.61;99875.38;5035723;28;8835;-61
2022/10/02 08:17:05;;;;;;;;;6.00;3.00;;;;;15.58;76.83;99879.06;5036106;28;8918;-60
2022/10/02 08:19:33;;;;;;;;;6.00;5.60;;;;;15.56;77.09;99881.91;5036486;28;9816;-60
2022/10/02 08:22:01;;;;;;;;;4.80;4.80;;;;;15.59;76.58;99886.13;5036553;28;8901;-60
2022/10/02 08:24:29;;;;;;;;;6.20;5.20;;;;;15.62;76.68;99880.47;5036934;28;8847;-61
2022/10/02 08:26:57;;;;;;;;;5.80;5.80;;;;;15.66;76.93;99880.00;5035309;28;8863;-60
2022/10/02 08:29:24;;;;;;;;;7.00;6.00;;;;;15.73;77.02;99882.88;5035146;28;8808;-60
2022/10/02 08:31:54;;;;;;;;;3.00;3.00;;;;;15.81;76.14;99891.00;5035982;28;8847;-61
2022/10/02 08:34:21;;;;;;;;;3.40;3.40;;;;;15.88;76.48;99887.53;5035488;28;8836;-60
2022/10/02 08:36:49;;;;;;;;;7.75;6.00;;;;;16.00;75.72;99886.28;5034537;28;8867;-61
2022/10/02 08:39:17;;;;;;;;;3.40;3.40;;;;;16.12;75.62;99884.16;5034829;28;8875;-60
2022/10/02 08:41:45;;;;;;;;;5.60;5.60;;;;;16.19;75.87;99886.06;5034566;28;8890;-60
2022/10/02 08:44:13;;;;;;;;;7.80;6.20;;;;;16.23;75.49;99896.34;5034158;28;8870;-60
2022/10/02 08:46:41;;;;;;;;;9.00;7.00;;;;;16.38;75.35;99905.53;5034145;28;8855;-60
2022/10/02 08:49:10;;;;;;;;;6.80;6.00;;;;;16.53;75.06;99909.31;5034797;28;9541;-60
2022/10/02 08:51:38;;;;;;;;;6.80;6.40;;;;;16.66;74.19;99907.03;5034204;28;8839;-61
2022/10/02 08:54:06;;;;;;;;;6.00;6.00;;;;;16.83;74.20;99906.09;5034428;28;8839;-61
2022/10/02 08:56:34;;;;;;;;;3.00;3.00;;;;;16.94;73.95;99894.19;5034440;28;8836;-61
2022/10/02 08:59:03;;;;;;;;;6.20;6.20;;;;;17.01;74.21;99898.72;5033799;28;8862;-60
2022/10/02 09:01:31;;;;;;;;;8.20;7.80;;;;;17.08;73.65;99898.94;5033770;28;8828;-60
2022/10/02 09:03:59;;;;;;;;;9.00;8.60;;;;;17.11;73.81;99891.38;5034872;28;8867;-60
2022/10/02 09:06:27;;;;;;;;;9.80;8.60;;;;;17.16;73.58;99893.56;5034749;28;8851;-61
2022/10/02 09:08:56;;;;;;;;;6.00;6.00;;;;;17.17;74.01;99890.69;5035283;28;8917;-61
2022/10/02 09:11:24;;;;;;;;;7.00;6.40;;;;;17.16;73.73;99899.78;5035180;28;9552;-60
2022/10/02 09:13:53;;;;;;;;;9.00;7.60;;;;;17.14;74.08;99899.13;5035859;28;8855;-60
2022/10/02 09:16:21;;;;;;;;;5.60;4.40;;;;;17.09;74.05;99904.13;5035565;28;8958;-60
2022/10/02 09:18:49;;;;;;;;;7.80;7.00;;;;;17.05;73.75;99900.09;5035105;28;8871;-60
2022/10/02 09:21:17;;;;;;;;;6.60;6.00;;;;;17.06;74.09;99909.84;5035242;28;8878;-61
2022/10/02 09:23:45;;;;;;;;;7.00;6.40;;;;;17.08;74.33;99907.84;5035002;28;8847;-60
2022/10/02 09:26:12;;;;;;;;;9.40;7.80;;;;;17.08;74.02;99912.41;5035368;28;8847;-63
2022/10/02 09:28:40;;;;;;;;;4.00;3.00;;;;;17.06;73.74;99915.25;5034240;28;8835;-61
2022/10/02 09:31:08;;;;;;;;;6.00;6.00;;;;;17.02;74.22;99924.63;5034559;28;8936;-60
2022/10/02 09:33:38;;;;;;;;;4.00;3.80;;;;;16.97;74.43;99929.69;5034617;28;8868;-60
2022/10/02 09:36:06;;;;;;;;;4.00;4.00;;;;;16.90;74.92;99925.09;5035818;28;9613;-61
2022/10/02 09:38:34;;;;;;;;;3.60;3.00;;;;;16.79;74.67;99915.47;5035720;28;8957;-61
2022/10/02 09:41:05;;;;;;;;;9.00;7.40;;;;;16.73;74.92;99918.81;5035520;28;8840;-61
2022/10/02 09:43:33;;;;;;;;;11.20;9.60;;;;;16.77;74.85;99920.19;5035389;28;8827;-61
2022/10/02 09:46:01;;;;;;;;;7.00;7.00;;;;;16.90;74.67;99915.19;5035151;28;8855;-61
2022/10/02 09:48:30;;;;;;;;;6.80;6.80;;;;;17.06;74.03;99915.25;5035216;28;8855;-61
2022/10/02 09:50:58;;;;;;;;;4.80;4.80;;;;;17.14;74.30;99909.88;5034647;28;8848;-61
2022/10/02 09:53:25;;;;;;;;;9.80;7.00;;;;;17.19;74.16;99910.25;5035096;28;8938;-60
2022/10/02 09:55:53;;;;;;;;;6.60;5.20;;;;;17.20;74.18;99906.53;5033587;28;8831;-60
2022/10/02 09:58:22;;;;;;;;;6.80;5.80;;;;;17.29;73.52;99907.38;5031967;28;8840;-60
2022/10/02 10:00:50;;;;;;;;;7.00;6.00;;;;;17.45;73.14;99910.97;5033058;28;9559;-61
2022/10/02 10:03:18;;;;;;;;;14.00;9.80;;;;;17.61;73.07;99900.22;5033059;28;8844;-61
2022/10/02 10:05:47;;;;;;;;;8.40;8.40;;;;;17.67;72.64;99906.78;5032922;28;9156;-60
2022/10/02 10:08:15;;;;;;;;;11.80;9.20;;;;;17.70;72.73;99909.97;5033914;28;8855;-61
2022/10/02 10:10:43;;;;;;;;;6.00;6.00;;;;;17.70;72.81;99903.78;5032230;28;8836;-60
2022/10/02 10:13:11;;;;;;;;;7.80;6.40;;;;;17.73;72.97;99915.06;5031684;28;8930;-60
2022/10/02 10:15:39;;;;;;;;;9.80;7.80;;;;;17.79;72.82;99903.59;5031043;28;8843;-60
2022/10/02 10:18:08;;;;;;;;;8.60;6.80;;;;;17.73;72.55;99906.97;5031730;28;8869;-61
2022/10/02 10:20:36;;;;;;;;;8.60;8.60;;;;;17.58;73.45;99922.13;5032433;28;8905;-61
2022/10/02 10:23:06;;;;;;;;;7.00;7.00;;;;;17.37;73.53;99918.19;5032760;28;8832;-60
2022/10/02 10:25:33;;;;;;;;;12.20;10.80;;;;;17.04;74.12;99922.63;5033484;28;8827;-60
2022/10/02 10:28:01;;;;;;;;;5.60;4.00;;;;;16.76;75.00;99929.25;5032452;28;8840;-59
2022/10/02 10:30:32;;;;;;;;;15.80;13.60;;;;;16.58;75.75;99925.81;5036460;28;8925;-60
2022/10/02 10:33:00;;;;;;;;;11.60;11.00;;;;;16.50;76.26;99931.13;5036388;28;8852;-61
2022/10/02 10:35:29;;;;;;;;;7.80;7.40;;;;;16.40;75.80;99930.41;5036759;28;8836;-60
2022/10/02 10:40:41;;;;;;;;;9.20;7.40;;;;;16.29;76.25;99937.84;5036208;28;8871;-60
2022/10/02 10:43:10;;;;;;;;;4.80;4.80;;;;;16.25;76.21;99937.31;5037417;28;8937;-61
2022/10/02 10:45:43;;;;;;;;;7.00;7.00;;;;;16.26;76.02;99947.06;5038166;28;8913;-60
2022/10/02 10:48:11;;;;;;;;;9.00;6.60;;;;;16.27;76.43;99954.13;5038602;28;8843;-61
2022/10/02 10:50:39;;;;;;;;;12.75;11.50;;;;;16.30;76.38;99952.97;5038188;28;8879;-60
2022/10/02 10:53:06;;;;;;;;;9.80;9.20;;;;;16.36;75.81;99953.22;5038004;28;8863;-61
2022/10/02 10:55:34;;;;;;;;;12.20;10.80;;;;;16.48;75.47;99951.94;5037577;28;8889;-61
2022/10/02 10:58:03;;;;;;;;;9.60;9.00;;;;;16.62;75.58;99956.75;5037042;28;8838;-60
2022/10/02 11:00:30;;;;;;;;;11.60;10.80;;;;;16.73;75.47;99961.84;5037686;28;8873;-60
2022/10/02 11:02:58;;;;;;;;;14.00;12.00;;;;;16.87;74.84;99963.09;5037402;28;8883;-61
2022/10/02 11:05:26;;;;;;;;;10.80;10.40;;;;;17.06;74.67;99966.38;5037731;28;8843;-60
2022/10/02 11:07:54;;;;;;;;;12.40;11.20;;;;;17.32;74.11;99969.81;5037322;28;8840;-61
2022/10/02 11:10:22;;;;;;;;;9.00;8.60;;;;;17.40;73.52;99967.16;5036519;28;8847;-60
2022/10/02 11:12:50;;;;;;;;;12.60;9.00;;;;;17.29;74.08;99974.66;5035391;28;9529;-63
2022/10/02 11:15:18;;;;;;;;;10.00;9.20;;;;;17.29;74.14;99980.06;5035703;28;8840;-61
2022/10/02 11:17:46;;;;;;;;;12.40;10.20;;;;;17.72;73.29;99978.03;5036273;28;8835;-61
2022/10/02 11:20:14;;;;;;;;;6.60;6.00;;;;;18.30;71.87;99973.31;5035876;28;8839;-60
2022/10/02 11:22:42;;;;;;;;;12.60;10.80;;;;;19.05;69.92;99967.41;5036453;28;8847;-61
2022/10/02 11:25:10;;;;;;;;;9.40;8.60;;;;;19.93;67.65;99966.06;5035988;28;8847;-61
2022/10/02 11:27:40;;;;;;;;;6.00;6.00;;;;;20.54;66.47;99974.03;5034865;28;8819;-61
2022/10/02 11:30:08;;;;;;;;;7.00;7.00;;;;;20.49;66.10;99974.53;5036624;28;8823;-60
2022/10/02 11:32:35;;;;;;;;;3.40;3.40;;;;;20.33;66.41;99980.13;5035920;28;8923;-60
2022/10/02 11:35:05;;;;;;;;;6.00;5.60;;;;;20.26;66.93;99979.16;5036587;28;8839;-62
2022/10/02 11:37:36;;;;;;;;;4.00;4.00;;;;;19.80;67.63;99980.19;5036939;28;9728;-61
2022/10/02 11:40:04;;;;;;;;;6.20;6.20;;;;;19.37;68.86;99986.22;5035826;28;8850;-61
2022/10/02 11:42:32;;;;;;;;;4.40;4.40;;;;;19.19;69.25;99996.41;5035481;28;8847;-60
2022/10/02 11:45:01;;;;;;;;;4.00;4.00;;;;;19.04;69.96;99987.31;5034888;28;8847;-61
2022/10/02 11:47:29;;;;;;;;;4.80;4.00;;;;;19.01;69.64;99998.47;5035118;28;8855;-60